TimeCDT,TemperatureF,Dew PointF,Humidity,Sea Level PressureIn,VisibilityMPH,Wind Direction,Wind SpeedMPH,Gust SpeedMPH,PrecipitationIn,Events,Conditions,WindDirDegrees,DateUTC
12:53 AM,59.0,50.0,72,29.85,10.0,SE,12.7,-,N/A,,Clear,130,2013-09-26 05:53:00
1:53 AM,57.9,50.0,75,29.84,10.0,SE,13.8,-,N/A,,Clear,130,2013-09-26 06:53:00
2:53 AM,57.0,50.0,77,29.83,10.0,SE,13.8,-,N/A,,Clear,130,2013-09-26 07:53:00
3:53 AM,55.9,51.1,84,29.84,10.0,SE,12.7,-,N/A,,Clear,130,2013-09-26 08:53:00
4:53 AM,55.9,51.1,84,29.82,10.0,SE,15.0,20.7,N/A,,Clear,130,2013-09-26 09:53:00
5:53 AM,55.0,50.0,83,29.82,10.0,SE,11.5,-,N/A,,Partly Cloudy,130,2013-09-26 10:53:00
6:53 AM,55.9,50.0,80,29.81,10.0,SE,12.7,21.9,N/A,,Clear,130,2013-09-26 11:53:00
7:53 AM,55.9,51.1,84,29.82,10.0,SE,13.8,21.9,N/A,,Clear,130,2013-09-26 12:53:00
8:53 AM,60.1,53.1,78,29.82,10.0,SE,19.6,28.8,N/A,,Clear,140,2013-09-26 13:53:00
9:53 AM,64.0,55.0,73,29.82,10.0,SE,18.4,28.8,N/A,,Clear,140,2013-09-26 14:53:00
10:53 AM,69.1,57.0,65,29.80,10.0,North,-9999.0,-,N/A,,Clear,0,2013-09-26 15:53:00
11:53 AM,72.0,57.0,59,29.78,10.0,SSE,26.5,34.5,N/A,,Clear,160,2013-09-26 16:53:00
12:53 PM,75.0,57.0,53,29.77,10.0,SSE,27.6,36.8,N/A,,Clear,160,2013-09-26 17:53:00
1:53 PM,78.1,57.9,50,29.75,10.0,SSE,17.3,36.8,N/A,,Clear,150,2013-09-26 18:53:00
2:53 PM,79.0,57.0,47,29.76,10.0,SSE,27.6,34.5,N/A,,Clear,150,2013-09-26 19:53:00
3:53 PM,80.1,57.0,45,29.76,10.0,South,21.9,33.4,N/A,,Clear,170,2013-09-26 20:53:00
4:53 PM,80.1,57.9,47,29.75,10.0,SSE,18.4,-,N/A,,Clear,150,2013-09-26 21:53:00
5:53 PM,79.0,57.0,47,29.76,10.0,SSE,17.3,-,N/A,,Clear,150,2013-09-26 22:53:00
6:53 PM,75.9,57.9,54,29.77,10.0,SE,11.5,-,N/A,,Clear,140,2013-09-26 23:53:00
7:53 PM,73.0,57.9,59,29.78,10.0,SE,11.5,-,N/A,,Partly Cloudy,130,2013-09-27 00:53:00
8:53 PM,73.0,59.0,61,29.80,10.0,SE,16.1,21.9,N/A,,Overcast,140,2013-09-27 01:53:00
9:53 PM,72.0,57.9,61,29.81,10.0,SE,17.3,-,N/A,,Mostly Cloudy,140,2013-09-27 02:53:00
10:53 PM,70.0,57.9,65,29.81,10.0,SE,15.0,-,N/A,,Clear,140,2013-09-27 03:53:00
11:53 PM,68.0,57.9,70,29.82,10.0,SE,11.5,-,N/A,,Clear,140,2013-09-27 04:53:00